NDO weather

San Fernando Airstrip
Teapa, Tabasco, Mexico

Public forecast

Using degrees Celsius for public forecast. Weather courtesy of forecast.io.

Closest aviation weather report (METAR) to San Fernando Airstrip

Report is more than 2 hours old.

Closest report is Carlos Rovirosa Pérez International Airport, 25.3 nm (46.8 km) NNE. Retrieved 2019/12/07 02:46 UTC (4 hours ago):

MMVA 070246Z 04007KT 6SM SKC 24/24 A3011 RMK SLP193 52023 920 HZY

Closest aviation forecast (TAF) to San Fernando Airstrip

Closest forecast is Carlos Rovirosa Pérez International Airport, 25.3 nm (46.8 km) NNE. Retrieved 2019/12/07 06:00 UTC (17 minutes ago):

TAF MMVA 070459Z 0706/0806 05005KT 6SM HZ SCT015 BKN060 FM070900 00000KT 3SM BR SCT010 BKN060 TEMPO 0710/0714 2SM BR BKN005 OVC010 FM071600 00000KT 4SM HZ SCT015 SCT060 FM071800 03010KT 6SM HZ SCT020 BKN060 TEMPO 0721/0801 5SM -RA BKN020 FM080300 03005KT 6SM HZ SCT010 BKN060